Time;durP1;ratioP1;P1;durP2;ratioP2;P2;SDS_P1;SDS_P2;PMS_P1;PMS_P2;Temp;Humidity;BMP_temperature;BMP_pressure;BME280_temperature;BME280_humidity;BME280_pressure;Samples;Min_cycle;Max_cycle;Signal;HPM_P1;HPM_P2
2022/09/20 00:02:19;;;;;;;;;;;;;;;;;;4982023;28;8428;-84
2022/09/20 00:04:46;;;;;;;;;;;;;;;;;;4979711;28;8507;-83
2022/09/20 00:07:12;;;;;;;;;;;;;;;;;;4978739;28;7205;-86
2022/09/20 00:09:39;;;;;;;;;;;;;;;;;;4980026;28;7126;-84
2022/09/20 00:12:04;;;;;;;;;;;;;;;;;;4977188;28;7205;-86
2022/09/20 00:14:30;;;;;;;;;;;;;;;;;;4979460;28;7126;-87
2022/09/20 00:16:55;;;;;;;;;;;;;;;;;;4979839;28;8538;-86
2022/09/20 00:19:21;;;;;;;;;;;;;;;;;;4981690;28;7771;-84
2022/09/20 00:21:46;;;;;;;;;;;;;;;;;;4981369;28;8548;-87
2022/09/20 00:24:12;;;;;;;;;;;;;;;;;;4981191;28;8377;-82
2022/09/20 00:26:38;;;;;;;;;;;;;;;;;;4980394;28;8692;-85
2022/09/20 00:29:04;;;;;;;;;;;;;;;;;;4979470;28;7248;-86
2022/09/20 00:31:30;;;;;;;;;;;;;;;;;;4978018;28;7082;-85
2022/09/20 00:36:41;;;;;;;;;;;;;;;;;;4958874;28;6966;-88
2022/09/20 00:39:10;;;;;;;;;;;;;;;;;;4974062;28;8287;-87
2022/09/20 00:41:35;;;;;;;;;;;;;;;;;;4976444;28;8404;-86
2022/09/20 00:44:02;;;;;;;;;;;;;;;;;;4977554;28;8306;-86
2022/09/20 00:46:35;;;;;;;;;;;;;;;;;;4980864;28;7242;-84
2022/09/20 00:49:14;;;;;;;;;;;;;;;;;;4980489;28;8403;-87
2022/09/20 00:51:44;;;;;;;;;;;;;;;;;;4979740;28;8730;-81
2022/09/20 00:54:13;;;;;;;;;;;;;;;;;;4979916;28;8392;-83
2022/09/20 00:56:42;;;;;;;;;;;;;;;;;;4980136;28;7024;-87
2022/09/20 00:59:26;;;;;;;;;;;;;;;;;;4979558;28;6886;-86
2022/09/20 01:01:55;;;;;;;;;;;;;;;;;;4978840;28;6821;-85
2022/09/20 01:04:24;;;;;;;;;;;;;;;;;;4977228;28;6809;-88
2022/09/20 01:06:53;;;;;;;;;;;;;;;;;;4974746;28;8263;-89
2022/09/20 01:09:19;;;;;;;;;;;;;;;;;;4975370;28;7412;-87
2022/09/20 01:11:45;;;;;;;;;;;;;;;;;;4975019;28;8252;-89
2022/09/20 01:14:13;;;;;;;;;;;;;;;;;;4975243;28;8438;-86
2022/09/20 01:16:39;;;;;;;;;;;;;;;;;;4976386;28;8780;-86
2022/09/20 01:19:13;;;;;;;;;;;;;;;;;;4976083;28;7246;-87
2022/09/20 01:21:39;;;;;;;;;;;;;;;;;;4976631;28;7017;-88
2022/09/20 01:24:18;;;;;;;;;;;;;;;;;;4977044;28;8394;-85
2022/09/20 01:27:07;;;;;;;;;;;;;;;;;;4963097;28;7296;-85
2022/09/20 01:29:32;;;;;;;;;;;;;;;;;;4954034;28;7238;-83
2022/09/20 01:32:00;;;;;;;;;;;;;;;;;;4961279;28;7073;-85
2022/09/20 01:34:32;;;;;;;;;;;;;;;;;;4978917;28;7040;-86
2022/09/20 01:37:11;;;;;;;;;;;;;;;;;;4962611;28;8326;-88
2022/09/20 01:39:39;;;;;;;;;;;;;;;;;;4977929;28;7030;-86
2022/09/20 01:42:08;;;;;;;;;;;;;;;;;;4962346;28;8433;-86
2022/09/20 01:44:37;;;;;;;;;;;;;;;;;;4977837;28;7159;-85
2022/09/20 01:47:30;;;;;;;;;;;;;;;;;;4962802;28;8375;-86
2022/09/20 01:50:03;;;;;;;;;;;;;;;;;;4977221;28;8461;-88
2022/09/20 01:52:31;;;;;;;;;;;;;;;;;;4977414;28;7010;-85
2022/09/20 01:55:16;;;;;;;;;;;;;;;;;;4958993;28;8288;-86
2022/09/20 01:57:56;;;;;;;;;;;;;;;;;;4957099;28;8701;-86
2022/09/20 02:00:29;;;;;;;;;;;;;;;;;;4956680;28;8319;-87
2022/09/20 02:02:55;;;;;;;;;;;;;;;;;;4972094;28;9041;-87
2022/09/20 02:05:20;;;;;;;;;;;;;;;;;;4955895;28;8887;-86
2022/09/20 02:08:04;;;;;;;;;;;;;;;;;;4955940;28;8443;-87
2022/09/20 02:10:48;;;;;;;;;;;;;;;;;;4957919;28;8485;-87
2022/09/20 02:13:27;;;;;;;;;;;;;;;;;;4958861;28;7041;-88
2022/09/20 02:15:56;;;;;;;;;;;;;;;;;;4975500;28;7205;-87
2022/09/20 02:18:38;;;;;;;;;;;;;;;;;;4958733;28;8699;-84
2022/09/20 02:21:24;;;;;;;;;;;;;;;;;;4975119;28;8437;-88
2022/09/20 02:24:16;;;;;;;;;;;;;;;;;;4975226;28;6926;-87
2022/09/20 02:27:00;;;;;;;;;;;;;;;;;;4974733;28;7025;-86
2022/09/20 02:29:47;;;;;;;;;;;;;;;;;;4958597;28;8526;-86
2022/09/20 02:32:28;;;;;;;;;;;;;;;;;;4974776;28;9462;-87
2022/09/20 02:35:08;;;;;;;;;;;;;;;;;;4974803;28;8647;-87
2022/09/20 02:37:52;;;;;;;;;;;;;;;;;;4975554;28;7429;-87
2022/09/20 02:40:21;;;;;;;;;;;;;;;;;;4958688;28;8447;-86
2022/09/20 02:42:57;;;;;;;;;;;;;;;;;;4958591;28;8725;-87
2022/09/20 02:45:36;;;;;;;;;;;;;;;;;;4975076;28;8392;-86
2022/09/20 02:48:03;;;;;;;;;;;;;;;;;;4974536;28;8397;-87
2022/09/20 02:50:50;;;;;;;;;;;;;;;;;;4977216;28;8746;-86
2022/09/20 02:53:34;;;;;;;;;;;;;;;;;;4974555;28;8409;-86
2022/09/20 02:56:03;;;;;;;;;;;;;;;;;;4959001;28;7097;-87
2022/09/20 02:58:28;;;;;;;;;;;;;;;;;;4958512;28;8711;-88
2022/09/20 03:01:09;;;;;;;;;;;;;;;;;;4958367;28;8394;-85
2022/09/20 03:04:05;;;;;;;;;;;;;;;;;;4975183;28;6998;-86
2022/09/20 03:06:57;;;;;;;;;;;;;;;;;;4974498;28;7192;-86
2022/09/20 03:09:41;;;;;;;;;;;;;;;;;;4974983;28;8700;-87
2022/09/20 03:12:26;;;;;;;;;;;;;;;;;;4958362;28;8509;-88
2022/09/20 03:14:54;;;;;;;;;;;;;;;;;;4960885;28;7192;-88
2022/09/20 03:17:19;;;;;;;;;;;;;;;;;;4962507;28;7150;-88
2022/09/20 03:19:48;;;;;;;;;;;;;;;;;;4962533;28;7193;-87
2022/09/20 03:22:36;;;;;;;;;;;;;;;;;;4962973;28;8427;-88
2022/09/20 03:25:13;;;;;;;;;;;;;;;;;;4979070;28;6918;-87
2022/09/20 03:27:51;;;;;;;;;;;;;;;;;;4963111;28;7146;-86
2022/09/20 03:30:16;;;;;;;;;;;;;;;;;;4963322;28;7011;-89
2022/09/20 03:32:42;;;;;;;;;;;;;;;;;;4962437;28;8413;-87
2022/09/20 03:35:22;;;;;;;;;;;;;;;;;;4962270;28;8398;-88
2022/09/20 03:37:48;;;;;;;;;;;;;;;;;;4961799;28;8397;-87
2022/09/20 03:40:14;;;;;;;;;;;;;;;;;;4962488;28;8381;-87
2022/09/20 03:42:48;;;;;;;;;;;;;;;;;;4962113;28;7217;-87
2022/09/20 03:45:24;;;;;;;;;;;;;;;;;;4977929;28;7122;-87
2022/09/20 03:47:56;;;;;;;;;;;;;;;;;;4962465;28;7034;-87
2022/09/20 03:50:48;;;;;;;;;;;;;;;;;;4962309;28;8486;-87
2022/09/20 03:53:25;;;;;;;;;;;;;;;;;;4963248;28;7027;-87
2022/09/20 03:56:02;;;;;;;;;;;;;;;;;;4980409;28;8428;-87
2022/09/20 03:58:47;;;;;;;;;;;;;;;;;;4978553;28;7157;-87
2022/09/20 04:01:33;;;;;;;;;;;;;;;;;;4962430;28;7104;-88
2022/09/20 04:04:17;;;;;;;;;;;;;;;;;;4977397;28;8454;-87
2022/09/20 04:06:43;;;;;;;;;;;;;;;;;;4961029;28;8414;-88
2022/09/20 04:09:11;;;;;;;;;;;;;;;;;;4960970;28;7078;-88
2022/09/20 04:11:50;;;;;;;;;;;;;;;;;;4961969;28;7171;-87
2022/09/20 04:14:16;;;;;;;;;;;;;;;;;;4980724;28;7044;-86
2022/09/20 04:16:41;;;;;;;;;;;;;;;;;;4963891;28;8446;-87
2022/09/20 04:19:36;;;;;;;;;;;;;;;;;;4964208;28;8621;-87
2022/09/20 04:22:02;;;;;;;;;;;;;;;;;;4944781;28;7171;-86
2022/09/20 04:24:39;;;;;;;;;;;;;;;;;;4978102;28;8300;-85
2022/09/20 04:27:12;;;;;;;;;;;;;;;;;;4976588;28;8467;-86
2022/09/20 04:29:51;;;;;;;;;;;;;;;;;;4977252;28;8425;-88
2022/09/20 04:32:20;;;;;;;;;;;;;;;;;;4977303;28;7257;-88
2022/09/20 04:37:37;;;;;;;;;;;;;;;;;;4978289;28;6806;-87
2022/09/20 04:40:13;;;;;;;;;;;;;;;;;;4976655;28;7060;-87
2022/09/20 04:42:41;;;;;;;;;;;;;;;;;;4960862;28;7168;-88
2022/09/20 04:45:19;;;;;;;;;;;;;;;;;;4960572;28;8456;-87
2022/09/20 04:48:04;;;;;;;;;;;;;;;;;;4960531;28;8516;-86
2022/09/20 04:50:49;;;;;;;;;;;;;;;;;;4960660;28;8306;-87
2022/09/20 04:53:17;;;;;;;;;;;;;;;;;;4976436;28;8428;-87
2022/09/20 04:55:52;;;;;;;;;;;;;;;;;;4960597;28;7175;-85
2022/09/20 04:58:24;;;;;;;;;;;;;;;;;;4976905;28;8978;-86
2022/09/20 05:00:52;;;;;;;;;;;;;;;;;;4960581;28;8447;-87
2022/09/20 05:03:28;;;;;;;;;;;;;;;;;;4960390;28;8391;-87
2022/09/20 05:06:13;;;;;;;;;;;;;;;;;;4960247;28;7329;-85
2022/09/20 05:08:57;;;;;;;;;;;;;;;;;;4974465;28;7077;-86
2022/09/20 05:11:29;;;;;;;;;;;;;;;;;;4958512;28;8554;-85
2022/09/20 05:14:11;;;;;;;;;;;;;;;;;;4958697;28;6842;-87
2022/09/20 05:16:37;;;;;;;;;;;;;;;;;;4975319;28;7179;-87
2022/09/20 05:19:25;;;;;;;;;;;;;;;;;;4958712;28;7212;-87
2022/09/20 05:22:09;;;;;;;;;;;;;;;;;;4971971;28;8743;-87
2022/09/20 05:24:46;;;;;;;;;;;;;;;;;;4954626;28;8797;-88
2022/09/20 05:27:34;;;;;;;;;;;;;;;;;;4956871;28;8342;-87
2022/09/20 05:30:02;;;;;;;;;;;;;;;;;;4974420;28;8398;-88
2022/09/20 05:32:37;;;;;;;;;;;;;;;;;;4958498;28;8508;-84
2022/09/20 05:35:15;;;;;;;;;;;;;;;;;;4975427;28;7083;-88
2022/09/20 05:37:47;;;;;;;;;;;;;;;;;;4959149;28;8833;-87
2022/09/20 05:40:20;;;;;;;;;;;;;;;;;;4968295;28;8820;-81
2022/09/20 05:42:53;;;;;;;;;;;;;;;;;;4985494;28;9126;-81
2022/09/20 05:45:37;;;;;;;;;;;;;;;;;;4982984;28;7458;-88
2022/09/20 05:48:14;;;;;;;;;;;;;;;;;;4964061;28;8773;-87
2022/09/20 05:50:56;;;;;;;;;;;;;;;;;;4966187;28;8492;-81
2022/09/20 05:53:41;;;;;;;;;;;;;;;;;;4980297;28;8387;-86
2022/09/20 05:56:19;;;;;;;;;;;;;;;;;;4963928;28;8356;-85
2022/09/20 05:58:47;;;;;;;;;;;;;;;;;;4981206;28;8421;-85
2022/09/20 06:01:22;;;;;;;;;;;;;;;;;;4964685;28;8331;-86
2022/09/20 06:04:07;;;;;;;;;;;;;;;;;;4967087;28;7183;-81
2022/09/20 06:06:32;;;;;;;;;;;;;;;;;;4968987;28;7033;-83
2022/09/20 06:09:20;;;;;;;;;;;;;;;;;;4966437;28;8307;-86
2022/09/20 06:12:03;;;;;;;;;;;;;;;;;;4981161;28;8467;-78
2022/09/20 06:14:49;;;;;;;;;;;;;;;;;;4978605;28;7122;-86
2022/09/20 06:17:27;;;;;;;;;;;;;;;;;;4960079;28;7529;-82
2022/09/20 06:19:52;;;;;;;;;;;;;;;;;;4958241;28;6828;-84
2022/09/20 06:22:31;;;;;;;;;;;;;;;;;;4957433;28;8371;-84
2022/09/20 06:25:12;;;;;;;;;;;;;;;;;;4974702;28;8415;-85
2022/09/20 06:27:49;;;;;;;;;;;;;;;;;;4975170;28;7061;-87
2022/09/20 06:30:22;;;;;;;;;;;;;;;;;;4974801;28;8799;-85
2022/09/20 06:32:52;;;;;;;;;;;;;;;;;;4974494;28;7246;-86
2022/09/20 06:35:19;;;;;;;;;;;;;;;;;;4975101;28;9445;-86
2022/09/20 06:43:39;;;;;;;;;;;;;;;;;;4976076;28;6935;-86
2022/09/20 06:46:05;;;;;;;;;;;;;;;;;;4975058;28;7127;-87
2022/09/20 06:48:30;;;;;;;;;;;;;;;;;;4976902;28;7067;-87
2022/09/20 06:50:56;;;;;;;;;;;;;;;;;;4978888;28;7018;-86
2022/09/20 06:53:35;;;;;;;;;;;;;;;;;;4978377;28;8524;-86
2022/09/20 06:56:02;;;;;;;;;;;;;;;;;;4979362;28;7116;-85
2022/09/20 06:58:28;;;;;;;;;;;;;;;;;;4978793;28;7011;-86
2022/09/20 07:00:54;;;;;;;;;;;;;;;;;;4978886;28;8428;-87
2022/09/20 07:03:19;;;;;;;;;;;;;;;;;;4978911;28;7011;-84
2022/09/20 07:05:45;;;;;;;;;;;;;;;;;;4978856;28;8598;-89
2022/09/20 07:08:11;;;;;;;;;;;;;;;;;;4978031;28;8416;-88
2022/09/20 07:10:37;;;;;;;;;;;;;;;;;;4978712;28;7143;-87
2022/09/20 07:13:04;;;;;;;;;;;;;;;;;;4978330;28;7167;-87
2022/09/20 07:15:31;;;;;;;;;;;;;;;;;;4978386;28;7026;-87
2022/09/20 07:17:58;;;;;;;;;;;;;;;;;;4978316;28;8475;-87
2022/09/20 07:20:25;;;;;;;;;;;;;;;;;;4979114;28;7199;-87
2022/09/20 07:22:51;;;;;;;;;;;;;;;;;;4978803;28;8329;-87
2022/09/20 07:25:17;;;;;;;;;;;;;;;;;;4978894;28;8602;-86
2022/09/20 07:27:45;;;;;;;;;;;;;;;;;;4977823;28;7042;-86
2022/09/20 07:30:12;;;;;;;;;;;;;;;;;;4978010;28;7034;-87
2022/09/20 07:32:39;;;;;;;;;;;;;;;;;;4980132;28;7337;-87
2022/09/20 07:35:07;;;;;;;;;;;;;;;;;;4977964;28;8513;-87
2022/09/20 07:37:32;;;;;;;;;;;;;;;;;;4978002;28;8395;-85
2022/09/20 07:39:58;;;;;;;;;;;;;;;;;;4977953;28;8465;-87
2022/09/20 07:42:24;;;;;;;;;;;;;;;;;;4978090;28;8622;-85
2022/09/20 07:44:49;;;;;;;;;;;;;;;;;;4978086;28;8462;-86
2022/09/20 07:47:15;;;;;;;;;;;;;;;;;;4978408;28;9334;-87
2022/09/20 07:49:40;;;;;;;;;;;;;;;;;;4979412;28;7013;-86
2022/09/20 07:52:06;;;;;;;;;;;;;;;;;;4979022;28;8396;-84
2022/09/20 07:54:32;;;;;;;;;;;;;;;;;;4979647;28;7238;-88
2022/09/20 07:56:57;;;;;;;;;;;;;;;;;;4979099;28;8464;-88
2022/09/20 07:59:23;;;;;;;;;;;;;;;;;;4978755;28;6992;-82
2022/09/20 08:01:48;;;;;;;;;;;;;;;;;;4979293;28;7209;-80
2022/09/20 08:04:14;;;;;;;;;;;;;;;;;;4989493;28;7134;-80
2022/09/20 08:06:41;;;;;;;;;;;;;;;;;;4989629;28;8859;-79
2022/09/20 08:09:08;;;;;;;;;;;;;;;;;;4987772;28;8313;-79
2022/09/20 08:11:34;;;;;;;;;;;;;;;;;;4989032;28;8440;-79
2022/09/20 08:14:00;;;;;;;;;;;;;;;;;;4989834;28;7070;-79
2022/09/20 08:16:27;;;;;;;;;;;;;;;;;;4989064;28;8302;-80
2022/09/20 08:18:57;;;;;;;;;;;;;;;;;;4989526;28;8381;-80
2022/09/20 08:21:25;;;;;;;;;;;;;;;;;;4989234;28;8711;-79
2022/09/20 08:23:51;;;;;;;;;;;;;;;;;;4988643;28;7174;-79
2022/09/20 08:26:18;;;;;;;;;;;;;;;;;;4988213;28;7023;-80
2022/09/20 08:28:45;;;;;;;;;;;;;;;;;;4987643;28;7080;-86
2022/09/20 08:31:12;;;;;;;;;;;;;;;;;;4973880;28;7345;-85
2022/09/20 08:33:38;;;;;;;;;;;;;;;;;;4975888;28;8374;-86
2022/09/20 08:36:10;;;;;;;;;;;;;;;;;;4976421;28;8362;-88
2022/09/20 08:38:35;;;;;;;;;;;;;;;;;;4975797;28;8772;-87
2022/09/20 08:41:00;;;;;;;;;;;;;;;;;;4976454;28;8734;-86
2022/09/20 08:43:30;;;;;;;;;;;;;;;;;;4959994;28;8430;-86
2022/09/20 08:45:59;;;;;;;;;;;;;;;;;;4976353;28;8392;-87
2022/09/20 08:48:32;;;;;;;;;;;;;;;;;;4976244;28;8764;-84
2022/09/20 08:51:02;;;;;;;;;;;;;;;;;;4976488;28;7040;-80
2022/09/20 08:53:29;;;;;;;;;;;;;;;;;;4974162;28;8595;-80
2022/09/20 08:55:58;;;;;;;;;;;;;;;;;;4957233;28;7077;-87
2022/09/20 08:58:26;;;;;;;;;;;;;;;;;;4965145;28;8462;-84
2022/09/20 09:00:54;;;;;;;;;;;;;;;;;;4976198;28;8304;-86
2022/09/20 09:03:20;;;;;;;;;;;;;;;;;;4961039;28;6873;-84
2022/09/20 09:05:51;;;;;;;;;;;;;;;;;;4965221;28;8377;-84
2022/09/20 09:08:23;;;;;;;;;;;;;;;;;;4958638;28;7257;-84
2022/09/20 09:11:08;;;;;;;;;;;;;;;;;;4979372;28;7051;-83
2022/09/20 09:13:45;;;;;;;;;;;;;;;;;;4991244;28;7006;-83
2022/09/20 09:16:14;;;;;;;;;;;;;;;;;;4959285;28;8773;-83
2022/09/20 09:18:41;;;;;;;;;;;;;;;;;;4959233;28;8704;-84
2022/09/20 09:21:09;;;;;;;;;;;;;;;;;;4959610;28;7220;-82
2022/09/20 09:23:45;;;;;;;;;;;;;;;;;;4959911;28;7043;-84
2022/09/20 09:26:16;;;;;;;;;;;;;;;;;;4959645;28;8397;-84
2022/09/20 09:28:42;;;;;;;;;;;;;;;;;;4963957;28;7053;-83
2022/09/20 09:31:17;;;;;;;;;;;;;;;;;;4967618;28;7076;-86
2022/09/20 09:33:44;;;;;;;;;;;;;;;;;;4985934;28;7208;-80
2022/09/20 09:36:13;;;;;;;;;;;;;;;;;;4960437;28;8315;-88
2022/09/20 09:38:43;;;;;;;;;;;;;;;;;;4959361;28;8461;-87
2022/09/20 09:41:30;;;;;;;;;;;;;;;;;;4959758;28;8779;-86
2022/09/20 09:44:00;;;;;;;;;;;;;;;;;;4959079;28;7183;-89
2022/09/20 09:46:29;;;;;;;;;;;;;;;;;;4960409;28;8418;-88
2022/09/20 09:49:07;;;;;;;;;;;;;;;;;;4959334;28;7135;-87
2022/09/20 09:51:34;;;;;;;;;;;;;;;;;;4959634;28;7054;-87
2022/09/20 09:54:01;;;;;;;;;;;;;;;;;;4959451;28;7036;-87
2022/09/20 09:56:46;;;;;;;;;;;;;;;;;;4959189;28;8412;-86
2022/09/20 09:59:32;;;;;;;;;;;;;;;;;;4975682;28;7041;-84
2022/09/20 10:02:00;;;;;;;;;;;;;;;;;;4959455;28;7111;-86
2022/09/20 10:04:25;;;;;;;;;;;;;;;;;;4974808;28;8425;-87
2022/09/20 10:07:06;;;;;;;;;;;;;;;;;;4974486;28;7258;-87
2022/09/20 10:09:43;;;;;;;;;;;;;;;;;;4958873;28;8442;-86
2022/09/20 10:12:35;;;;;;;;;;;;;;;;;;4975231;28;8397;-87
2022/09/20 10:15:09;;;;;;;;;;;;;;;;;;4959757;28;8410;-85
2022/09/20 10:18:01;;;;;;;;;;;;;;;;;;4975124;28;8447;-85
2022/09/20 10:20:33;;;;;;;;;;;;;;;;;;4930010;28;8404;-85
2022/09/20 10:23:00;;;;;;;;;;;;;;;;;;4973828;28;7047;-83
2022/09/20 10:25:38;;;;;;;;;;;;;;;;;;4975483;28;7166;-84
2022/09/20 10:28:04;;;;;;;;;;;;;;;;;;4959078;28;8434;-86
2022/09/20 10:30:49;;;;;;;;;;;;;;;;;;4975834;28;8310;-84
2022/09/20 10:33:23;;;;;;;;;;;;;;;;;;4958649;28;7047;-84
2022/09/20 10:36:13;;;;;;;;;;;;;;;;;;4958647;28;8817;-84
2022/09/20 10:38:50;;;;;;;;;;;;;;;;;;4958645;28;8425;-86
2022/09/20 10:44:17;;;;;;;;;;;;;;;;;;4975821;28;6768;-85
2022/09/20 10:47:01;;;;;;;;;;;;;;;;;;4973880;28;7182;-85
2022/09/20 10:49:42;;;;;;;;;;;;;;;;;;4973758;28;8415;-84
2022/09/20 10:52:31;;;;;;;;;;;;;;;;;;4958155;28;7159;-82
2022/09/20 10:55:03;;;;;;;;;;;;;;;;;;4959201;28;8767;-84
2022/09/20 10:57:47;;;;;;;;;;;;;;;;;;4970660;28;8902;-85
2022/09/20 11:00:15;;;;;;;;;;;;;;;;;;4974476;28;8647;-85
2022/09/20 11:02:41;;;;;;;;;;;;;;;;;;4974057;28;7144;-85
2022/09/20 11:05:13;;;;;;;;;;;;;;;;;;4974000;28;8752;-85
2022/09/20 11:07:38;;;;;;;;;;;;;;;;;;4974573;28;8505;-84
2022/09/20 11:10:13;;;;;;;;;;;;;;;;;;4974328;28;7130;-85
2022/09/20 11:12:44;;;;;;;;;;;;;;;;;;4959024;28;8402;-85
2022/09/20 11:15:24;;;;;;;;;;;;;;;;;;4959041;28;8468;-85
2022/09/20 11:18:22;;;;;;;;;;;;;;;;;;4959267;28;7042;-82
2022/09/20 11:20:56;;;;;;;;;;;;;;;;;;4957915;28;8434;-84
2022/09/20 11:23:43;;;;;;;;;;;;;;;;;;4958210;28;7261;-85
2022/09/20 11:26:44;;;;;;;;;;;;;;;;;;4957746;28;7139;-86
2022/09/20 11:29:20;;;;;;;;;;;;;;;;;;4881844;29;8832;-85
2022/09/20 11:31:49;;;;;;;;;;;;;;;;;;4881540;29;7008;-85
2022/09/20 11:34:15;;;;;;;;;;;;;;;;;;4881626;29;7176;-86
2022/09/20 11:36:53;;;;;;;;;;;;;;;;;;4900283;29;8406;-85
2022/09/20 11:39:28;;;;;;;;;;;;;;;;;;4885619;29;7195;-84
2022/09/20 11:41:58;;;;;;;;;;;;;;;;;;4885365;29;8874;-84
2022/09/20 11:44:25;;;;;;;;;;;;;;;;;;4884959;29;7270;-84
2022/09/20 11:46:57;;;;;;;;;;;;;;;;;;4884651;29;8477;-84
2022/09/20 11:49:28;;;;;;;;;;;;;;;;;;4884794;29;7042;-84
2022/09/20 11:52:11;;;;;;;;;;;;;;;;;;4884581;29;8817;-84
2022/09/20 11:54:36;;;;;;;;;;;;;;;;;;4884100;29;8450;-85
2022/09/20 11:57:04;;;;;;;;;;;;;;;;;;4899786;29;7000;-86
2022/09/20 11:59:33;;;;;;;;;;;;;;;;;;4883863;29;9072;-85
2022/09/20 12:02:03;;;;;;;;;;;;;;;;;;4901625;28;7001;-84
2022/09/20 12:04:32;;;;;;;;;;;;;;;;;;4960389;28;8462;-85
2022/09/20 12:07:01;;;;;;;;;;;;;;;;;;4960831;28;9000;-85
2022/09/20 12:09:37;;;;;;;;;;;;;;;;;;4960520;28;7086;-83
2022/09/20 12:12:28;;;;;;;;;;;;;;;;;;4960967;28;8478;-84
2022/09/20 12:14:57;;;;;;;;;;;;;;;;;;4932234;28;8424;-85
2022/09/20 12:17:41;;;;;;;;;;;;;;;;;;4960999;28;8408;-86
2022/09/20 12:20:25;;;;;;;;;;;;;;;;;;4977423;28;8422;-86
2022/09/20 12:22:51;;;;;;;;;;;;;;;;;;4976657;28;8741;-86
2022/09/20 12:25:38;;;;;;;;;;;;;;;;;;4960695;28;8456;-85
2022/09/20 12:28:13;;;;;;;;;;;;;;;;;;4960591;28;8887;-85
2022/09/20 12:30:39;;;;;;;;;;;;;;;;;;4960543;28;7476;-85
2022/09/20 12:33:18;;;;;;;;;;;;;;;;;;4960388;28;8795;-86
2022/09/20 12:35:58;;;;;;;;;;;;;;;;;;4960226;28;8534;-86
2022/09/20 12:38:24;;;;;;;;;;;;;;;;;;4959983;28;7447;-85
2022/09/20 12:41:07;;;;;;;;;;;;;;;;;;4976739;28;7032;-86
2022/09/20 12:43:35;;;;;;;;;;;;;;;;;;4961196;28;7382;-85
2022/09/20 12:46:02;;;;;;;;;;;;;;;;;;4960126;28;8382;-86
2022/09/20 12:48:33;;;;;;;;;;;;;;;;;;4960921;28;8332;-86
2022/09/20 12:54:05;;;;;;;;;;;;;;;;;;4977993;28;6806;-85
2022/09/20 12:56:35;;;;;;;;;;;;;;;;;;4960856;28;8850;-84
2022/09/20 12:59:04;;;;;;;;;;;;;;;;;;4960207;28;8827;-84
2022/09/20 13:01:33;;;;;;;;;;;;;;;;;;4960300;28;7436;-84
2022/09/20 13:04:17;;;;;;;;;;;;;;;;;;4960040;28;8861;-87
2022/09/20 13:06:44;;;;;;;;;;;;;;;;;;4975824;28;8423;-85
2022/09/20 13:09:12;;;;;;;;;;;;;;;;;;4960162;28;9110;-86
2022/09/20 13:11:41;;;;;;;;;;;;;;;;;;4960092;28;7343;-87
2022/09/20 13:14:06;;;;;;;;;;;;;;;;;;4976647;28;8590;-85
2022/09/20 13:16:35;;;;;;;;;;;;;;;;;;4976910;28;7173;-85
2022/09/20 13:19:05;;;;;;;;;;;;;;;;;;4976024;28;7247;-87
2022/09/20 13:21:35;;;;;;;;;;;;;;;;;;4960185;28;7038;-85
2022/09/20 13:24:02;;;;;;;;;;;;;;;;;;4959865;28;7250;-85
2022/09/20 13:26:32;;;;;;;;;;;;;;;;;;4960216;28;7156;-86
2022/09/20 13:29:00;;;;;;;;;;;;;;;;;;4959633;28;7073;-85
2022/09/20 13:31:27;;;;;;;;;;;;;;;;;;4959988;28;8413;-86
2022/09/20 13:33:53;;;;;;;;;;;;;;;;;;4960419;28;7186;-85
2022/09/20 13:36:29;;;;;;;;;;;;;;;;;;4959718;28;7046;-84
2022/09/20 13:38:56;;;;;;;;;;;;;;;;;;4959345;28;7052;-86
2022/09/20 13:41:26;;;;;;;;;;;;;;;;;;4959601;28;8446;-85
2022/09/20 13:43:52;;;;;;;;;;;;;;;;;;4959674;28;8699;-86
2022/09/20 13:46:29;;;;;;;;;;;;;;;;;;4959845;28;8404;-84
2022/09/20 13:49:10;;;;;;;;;;;;;;;;;;4959919;28;7033;-83
2022/09/20 13:51:36;;;;;;;;;;;;;;;;;;4975789;28;8712;-86
2022/09/20 13:54:16;;;;;;;;;;;;;;;;;;4959761;28;8880;-82
2022/09/20 13:56:43;;;;;;;;;;;;;;;;;;4975533;28;9259;-84
2022/09/20 13:59:13;;;;;;;;;;;;;;;;;;4958583;28;8789;-85
2022/09/20 14:01:43;;;;;;;;;;;;;;;;;;4957850;28;7052;-83
2022/09/20 14:04:15;;;;;;;;;;;;;;;;;;4958079;28;7070;-85
2022/09/20 14:06:41;;;;;;;;;;;;;;;;;;4958754;28;7430;-81
2022/09/20 14:09:17;;;;;;;;;;;;;;;;;;4958702;28;8411;-80
2022/09/20 14:11:44;;;;;;;;;;;;;;;;;;4959185;28;8850;-80
2022/09/20 14:14:13;;;;;;;;;;;;;;;;;;4958823;28;7164;-81
2022/09/20 14:16:45;;;;;;;;;;;;;;;;;;4958733;28;7052;-81
2022/09/20 14:19:14;;;;;;;;;;;;;;;;;;4958708;28;7180;-82
2022/09/20 14:21:42;;;;;;;;;;;;;;;;;;4959512;28;8474;-84
2022/09/20 14:24:14;;;;;;;;;;;;;;;;;;4959017;28;7178;-85
2022/09/20 14:26:41;;;;;;;;;;;;;;;;;;4974770;28;7172;-84
2022/09/20 14:29:46;;;;;;;;;;;;;;;;;;4958862;28;6896;-86
2022/09/20 14:32:23;;;;;;;;;;;;;;;;;;4882834;29;8350;-85
2022/09/20 14:34:55;;;;;;;;;;;;;;;;;;4882261;29;7073;-85
2022/09/20 14:37:23;;;;;;;;;;;;;;;;;;4897812;29;8484;-85
2022/09/20 14:39:54;;;;;;;;;;;;;;;;;;4897952;29;8449;-85
2022/09/20 14:42:28;;;;;;;;;;;;;;;;;;4881545;29;7170;-87
2022/09/20 14:44:54;;;;;;;;;;;;;;;;;;4881640;29;6847;-86
2022/09/20 14:47:27;;;;;;;;;;;;;;;;;;4880965;29;7149;-85
2022/09/20 14:49:53;;;;;;;;;;;;;;;;;;4882146;29;8270;-85
2022/09/20 14:52:25;;;;;;;;;;;;;;;;;;4881817;29;7179;-85
2022/09/20 14:54:58;;;;;;;;;;;;;;;;;;4897624;29;7053;-83
2022/09/20 14:57:23;;;;;;;;;;;;;;;;;;4881799;29;8801;-85
2022/09/20 14:59:53;;;;;;;;;;;;;;;;;;4881870;29;8464;-85
2022/09/20 15:02:20;;;;;;;;;;;;;;;;;;4901348;28;8672;-84
2022/09/20 15:05:00;;;;;;;;;;;;;;;;;;4959403;28;7243;-82
2022/09/20 15:07:26;;;;;;;;;;;;;;;;;;4984649;28;7297;-85
2022/09/20 15:09:51;;;;;;;;;;;;;;;;;;5002490;28;7043;-84
2022/09/20 15:12:18;;;;;;;;;;;;;;;;;;4980243;28;8408;-86
2022/09/20 15:14:45;;;;;;;;;;;;;;;;;;4977912;28;7535;-86
2022/09/20 15:17:20;;;;;;;;;;;;;;;;;;4977958;28;9752;-86
2022/09/20 15:19:47;;;;;;;;;;;;;;;;;;4978264;28;8357;-85
2022/09/20 15:22:14;;;;;;;;;;;;;;;;;;4978174;28;8479;-86
2022/09/20 15:24:40;;;;;;;;;;;;;;;;;;4976036;28;7171;-86
2022/09/20 15:27:06;;;;;;;;;;;;;;;;;;4988653;28;9304;-82
2022/09/20 15:29:32;;;;;;;;;;;;;;;;;;5019468;28;7210;-83
2022/09/20 15:31:57;;;;;;;;;;;;;;;;;;5021346;28;7378;-84
2022/09/20 15:34:23;;;;;;;;;;;;;;;;;;5019224;28;8763;-84
2022/09/20 15:36:49;;;;;;;;;;;;;;;;;;5018505;28;7213;-84
2022/09/20 15:39:15;;;;;;;;;;;;;;;;;;4997264;28;8430;-84
2022/09/20 15:41:40;;;;;;;;;;;;;;;;;;4997360;28;7175;-85
2022/09/20 15:44:06;;;;;;;;;;;;;;;;;;4980597;28;8462;-85
2022/09/20 15:46:32;;;;;;;;;;;;;;;;;;4981037;28;7178;-86
2022/09/20 15:48:59;;;;;;;;;;;;;;;;;;4981070;28;8885;-87
2022/09/20 15:51:25;;;;;;;;;;;;;;;;;;4981765;28;8444;-87
2022/09/20 15:54:02;;;;;;;;;;;;;;;;;;4981909;28;8668;-84
2022/09/20 15:56:30;;;;;;;;;;;;;;;;;;4998550;28;8503;-86
2022/09/20 15:59:00;;;;;;;;;;;;;;;;;;4998076;28;8511;-85
2022/09/20 16:01:28;;;;;;;;;;;;;;;;;;4997750;28;8459;-84
2022/09/20 16:03:54;;;;;;;;;;;;;;;;;;4980727;28;8433;-86
2022/09/20 16:06:21;;;;;;;;;;;;;;;;;;4996872;28;7248;-83
2022/09/20 16:08:46;;;;;;;;;;;;;;;;;;4996076;28;7171;-84
2022/09/20 16:11:13;;;;;;;;;;;;;;;;;;4996268;28;7358;-85
2022/09/20 16:13:39;;;;;;;;;;;;;;;;;;4980434;28;8430;-86
2022/09/20 16:16:07;;;;;;;;;;;;;;;;;;4996468;28;7039;-86
2022/09/20 16:21:19;;;;;;;;;;;;;;;;;;4996390;28;6998;-84
2022/09/20 16:23:46;;;;;;;;;;;;;;;;;;4995635;28;8611;-85
2022/09/20 16:26:12;;;;;;;;;;;;;;;;;;4995709;28;7158;-84
2022/09/20 16:28:38;;;;;;;;;;;;;;;;;;4995448;28;7404;-85
2022/09/20 16:31:04;;;;;;;;;;;;;;;;;;4995627;28;8717;-84
2022/09/20 16:33:31;;;;;;;;;;;;;;;;;;4996000;28;8278;-81
2022/09/20 16:35:57;;;;;;;;;;;;;;;;;;4995588;28;7259;-86
2022/09/20 16:38:23;;;;;;;;;;;;;;;;;;4996449;28;8345;-86
2022/09/20 16:40:53;;;;;;;;;;;;;;;;;;4996125;28;7147;-89
2022/09/20 16:43:25;;;;;;;;;;;;;;;;;;4996525;28;8801;-83
2022/09/20 16:46:00;;;;;;;;;;;;;;;;;;4996680;28;8822;-87
2022/09/20 16:48:30;;;;;;;;;;;;;;;;;;4996468;28;8518;-87
2022/09/20 16:50:57;;;;;;;;;;;;;;;;;;4995990;28;8448;-85
2022/09/20 16:53:27;;;;;;;;;;;;;;;;;;4995283;28;7445;-83
2022/09/20 16:55:56;;;;;;;;;;;;;;;;;;4995512;28;8670;-87
2022/09/20 16:58:28;;;;;;;;;;;;;;;;;;4979436;28;7030;-83
2022/09/20 17:01:05;;;;;;;;;;;;;;;;;;4978800;28;7039;-86
2022/09/20 17:03:31;;;;;;;;;;;;;;;;;;4979294;28;7165;-82
2022/09/20 17:06:04;;;;;;;;;;;;;;;;;;4977512;28;7027;-85
2022/09/20 17:08:34;;;;;;;;;;;;;;;;;;4978039;28;7065;-85
2022/09/20 17:11:00;;;;;;;;;;;;;;;;;;4978594;28;7056;-87
2022/09/20 17:13:29;;;;;;;;;;;;;;;;;;4979194;28;7055;-84
2022/09/20 17:16:05;;;;;;;;;;;;;;;;;;4979286;28;8464;-85
2022/09/20 17:18:32;;;;;;;;;;;;;;;;;;4978705;28;8420;-86
2022/09/20 17:21:04;;;;;;;;;;;;;;;;;;4979840;28;8485;-85
2022/09/20 17:23:33;;;;;;;;;;;;;;;;;;4980382;28;8333;-85
2022/09/20 17:26:07;;;;;;;;;;;;;;;;;;4996520;28;7216;-86
2022/09/20 17:28:35;;;;;;;;;;;;;;;;;;4995868;28;7044;-86
2022/09/20 17:31:01;;;;;;;;;;;;;;;;;;4995985;28;8966;-85
2022/09/20 17:33:30;;;;;;;;;;;;;;;;;;4994298;28;7248;-85
2022/09/20 17:35:58;;;;;;;;;;;;;;;;;;4995604;28;7135;-85
2022/09/20 17:38:24;;;;;;;;;;;;;;;;;;4995586;28;7021;-85
2022/09/20 17:41:01;;;;;;;;;;;;;;;;;;4995101;28;8396;-86
2022/09/20 17:43:28;;;;;;;;;;;;;;;;;;4995073;28;7240;-84
2022/09/20 17:45:55;;;;;;;;;;;;;;;;;;4995661;28;7043;-77
2022/09/20 17:48:24;;;;;;;;;;;;;;;;;;4996517;28;8340;-82
2022/09/20 17:50:54;;;;;;;;;;;;;;;;;;4995703;28;9460;-84
2022/09/20 17:53:21;;;;;;;;;;;;;;;;;;4994757;28;7065;-85
2022/09/20 17:55:56;;;;;;;;;;;;;;;;;;4994554;28;8397;-85
2022/09/20 17:58:23;;;;;;;;;;;;;;;;;;4995533;28;7108;-85